Terminal Aerodrome Forecast
Issued by NWS

Home | Current Version | Previous Version | Text Only | Print | Product List | Glossary On
Versions: 1 2 3 4 5 6 7 8 9 10 11 12 13 14
000
FTUS43 KOAX 021141
TAFSNY
TAF
KSNY 021141Z 0212/0312 08006KT P6SM BKN150
     FM021900 05009KT P6SM BKN080
     FM022300 02007G14KT P6SM VCTS BKN100CB
     FM030400 08006KT P6SM OVC100=

USA.gov is the U.S. government's official web portal to all federal, state and local government web resources and services.